createdAt,value
2022-08-16T00:01:23.672Z,2.40
2022-08-16T00:03:54.135Z,2.53
2022-08-16T00:06:22.786Z,2.50
2022-08-16T00:08:52.470Z,2.50
2022-08-16T00:11:22.440Z,2.27
2022-08-16T00:13:55.726Z,2.40
2022-08-16T00:17:05.331Z,2.23
2022-08-16T00:19:13.917Z,2.33
2022-08-16T00:21:44.307Z,2.47
2022-08-16T00:24:31.144Z,2.17
2022-08-16T00:27:01.720Z,2.30
2022-08-16T00:29:32.085Z,2.50
2022-08-16T00:32:06.536Z,2.70
2022-08-16T00:34:44.550Z,2.80
2022-08-16T00:37:24.442Z,2.17
2022-08-16T00:39:57.650Z,2.80
2022-08-16T00:42:30.571Z,2.77
2022-08-16T00:45:06.359Z,2.40
2022-08-16T00:47:37.244Z,2.47
2022-08-16T00:50:11.407Z,2.80
2022-08-16T00:52:46.011Z,2.53
2022-08-16T00:55:20.442Z,2.27
2022-08-16T00:57:59.015Z,2.43
2022-08-16T01:00:31.199Z,2.47
2022-08-16T01:03:01.269Z,2.60
2022-08-16T01:05:30.033Z,2.73
2022-08-16T01:08:01.666Z,2.40
2022-08-16T01:10:33.371Z,2.60
2022-08-16T01:13:08.117Z,2.40
2022-08-16T01:15:43.146Z,2.70
2022-08-16T01:18:39.781Z,2.40
2022-08-16T01:21:06.728Z,2.50
2022-08-16T01:23:58.118Z,2.70
2022-08-16T01:26:34.746Z,2.43
2022-08-16T01:29:06.340Z,2.60
2022-08-16T01:31:42.478Z,2.57
2022-08-16T01:34:25.140Z,2.33
2022-08-16T01:36:59.232Z,2.47
2022-08-16T01:39:30.145Z,2.40
2022-08-16T01:42:04.653Z,2.70
2022-08-16T01:44:41.678Z,2.63
2022-08-16T01:47:12.585Z,2.33
2022-08-16T01:49:43.115Z,2.70
2022-08-16T01:52:30.854Z,2.60
2022-08-16T01:54:59.578Z,2.23
2022-08-16T01:57:31.665Z,2.73
2022-08-16T02:00:00.742Z,2.40
2022-08-16T02:02:29.933Z,2.33
2022-08-16T02:05:00.176Z,2.37
2022-08-16T02:07:28.793Z,3.00
2022-08-16T02:10:01.921Z,2.30
2022-08-16T02:12:49.955Z,2.60
2022-08-16T02:15:25.488Z,2.33
2022-08-16T02:17:55.186Z,2.47
2022-08-16T02:20:26.353Z,2.20
2022-08-16T02:22:56.709Z,2.70
2022-08-16T02:25:25.292Z,2.10
2022-08-16T02:28:17.349Z,2.43
2022-08-16T02:30:51.801Z,2.20
2022-08-16T02:33:20.697Z,2.50
2022-08-16T02:35:55.126Z,2.40
2022-08-16T02:38:26.925Z,2.47
2022-08-16T02:40:55.399Z,2.40
2022-08-16T02:43:26.484Z,2.83
2022-08-16T02:45:55.692Z,2.47
2022-08-16T02:48:29.071Z,3.87
2022-08-16T02:51:04.218Z,2.73
2022-08-16T02:53:40.259Z,2.40
2022-08-16T02:56:09.919Z,2.30
2022-08-16T02:58:40.020Z,2.70
2022-08-16T03:01:13.900Z,2.33
2022-08-16T03:03:53.201Z,2.30
2022-08-16T03:06:43.123Z,2.10
2022-08-16T03:09:15.016Z,2.30
2022-08-16T03:11:46.425Z,2.53
2022-08-16T03:14:21.088Z,2.63
2022-08-16T03:16:59.106Z,2.37
2022-08-16T03:19:48.746Z,2.10
2022-08-16T03:22:19.390Z,2.23
2022-08-16T03:24:57.880Z,2.30
2022-08-16T03:27:30.914Z,2.27
2022-08-16T03:30:02.555Z,2.60
2022-08-16T03:32:47.318Z,2.33
2022-08-16T03:35:17.728Z,2.77
2022-08-16T03:38:01.434Z,2.40
2022-08-16T03:40:33.511Z,2.40
2022-08-16T03:43:20.743Z,2.50
2022-08-16T03:45:52.394Z,2.53
2022-08-16T03:48:36.933Z,2.60
2022-08-16T03:51:10.404Z,2.40
2022-08-16T03:53:41.599Z,2.70
2022-08-16T03:56:19.813Z,2.30
2022-08-16T03:58:50.819Z,2.83
2022-08-16T04:01:22.420Z,2.70
2022-08-16T04:03:51.381Z,2.40
2022-08-16T04:06:21.823Z,3.00
2022-08-16T04:08:50.594Z,2.50
2022-08-16T04:11:19.747Z,2.67
2022-08-16T04:14:00.680Z,2.80
2022-08-16T04:16:38.844Z,3.70
2022-08-16T04:19:07.740Z,2.80
2022-08-16T04:21:47.220Z,2.93
2022-08-16T04:24:16.588Z,2.80
2022-08-16T04:26:46.746Z,2.33
2022-08-16T04:29:23.802Z,2.83
2022-08-16T04:31:57.946Z,2.60
2022-08-16T04:34:28.200Z,2.77
2022-08-16T04:36:58.003Z,2.40
2022-08-16T04:39:44.865Z,2.57
2022-08-16T04:42:16.008Z,2.40
2022-08-16T04:44:54.221Z,2.70
2022-08-16T04:47:33.001Z,2.83
2022-08-16T04:50:04.161Z,2.80
2022-08-16T04:52:35.800Z,2.80
2022-08-16T04:55:07.657Z,3.27
2022-08-16T04:57:37.113Z,2.53
2022-08-16T05:00:32.867Z,2.57
2022-08-16T05:03:07.140Z,2.70
2022-08-16T05:05:45.296Z,2.83
2022-08-16T05:08:29.845Z,2.37
2022-08-16T05:11:01.399Z,2.53
2022-08-16T05:13:39.929Z,2.80
2022-08-16T05:16:11.980Z,2.60
2022-08-16T05:18:53.681Z,2.70
2022-08-16T05:21:26.906Z,2.73
2022-08-16T05:24:00.318Z,2.90
2022-08-16T05:26:31.831Z,2.70
2022-08-16T05:29:04.751Z,2.77
2022-08-16T05:31:35.104Z,2.50
2022-08-16T05:34:19.839Z,2.70
2022-08-16T05:36:49.331Z,2.90
2022-08-16T05:39:20.479Z,2.85
2022-08-16T05:41:51.572Z,2.65
2022-08-16T05:44:24.193Z,3.20
2022-08-16T05:46:54.981Z,2.50
2022-08-16T05:49:38.301Z,2.63
2022-08-16T05:52:11.567Z,2.60
2022-08-16T05:54:46.866Z,2.67
2022-08-16T05:57:17.036Z,2.80
2022-08-16T05:59:47.332Z,2.70
2022-08-16T06:02:19.588Z,2.78
2022-08-16T06:04:49.528Z,2.78
2022-08-16T06:07:24.587Z,3.13
2022-08-16T06:09:59.594Z,2.85
2022-08-16T06:12:28.971Z,2.92
2022-08-16T06:14:59.790Z,3.20
2022-08-16T06:17:42.438Z,3.22
2022-08-16T06:20:18.411Z,3.10
2022-08-16T06:22:57.467Z,3.10
2022-08-16T06:25:36.407Z,3.78
2022-08-16T06:28:09.409Z,3.63
2022-08-16T06:30:43.990Z,3.65
2022-08-16T06:33:22.096Z,3.40
2022-08-16T06:35:54.699Z,3.40
2022-08-16T06:38:32.261Z,3.22
2022-08-16T06:41:04.565Z,3.30
2022-08-16T06:43:34.387Z,2.67
2022-08-16T06:46:04.850Z,3.95
2022-08-16T06:48:34.146Z,3.30
2022-08-16T06:51:05.658Z,3.63
2022-08-16T06:53:36.542Z,3.35
2022-08-16T06:56:13.837Z,3.05
2022-08-16T06:58:47.128Z,3.08
2022-08-16T07:01:16.066Z,5.72
2022-08-16T07:03:55.565Z,3.33
2022-08-16T07:06:27.538Z,3.35
2022-08-16T07:08:56.847Z,3.60
2022-08-16T07:11:47.255Z,3.55
2022-08-16T07:14:26.257Z,3.05
2022-08-16T07:16:59.003Z,3.53
2022-08-16T07:19:33.764Z,3.13
2022-08-16T07:22:37.569Z,3.30
2022-08-16T07:25:10.001Z,3.05
2022-08-16T07:27:39.357Z,2.90
2022-08-16T07:30:45.385Z,3.30
2022-08-16T07:33:07.894Z,3.35
2022-08-16T07:35:36.262Z,3.40
2022-08-16T07:38:07.406Z,2.65
2022-08-16T07:40:59.239Z,2.88
2022-08-16T07:43:29.338Z,2.40
2022-08-16T07:45:59.512Z,2.35
2022-08-16T07:48:30.155Z,2.60
2022-08-16T07:51:00.344Z,2.80
2022-08-16T07:53:34.838Z,3.67
2022-08-16T07:56:16.235Z,2.95
2022-08-16T07:58:48.843Z,2.90
2022-08-16T08:01:24.839Z,3.13
2022-08-16T08:03:56.839Z,2.78
2022-08-16T08:06:28.851Z,2.95
2022-08-16T08:08:59.466Z,5.90
2022-08-16T08:11:29.548Z,3.10
2022-08-16T08:14:03.040Z,3.58
2022-08-16T08:16:32.309Z,2.75
2022-08-16T08:19:02.845Z,2.90
2022-08-16T08:21:59.775Z,2.97
2022-08-16T08:24:31.622Z,2.83
2022-08-16T08:27:02.314Z,3.30
2022-08-16T08:29:37.744Z,3.10
2022-08-16T08:32:58.515Z,3.13
2022-08-16T08:35:03.294Z,3.45
2022-08-16T08:37:54.182Z,3.30
2022-08-16T08:40:26.677Z,3.45
2022-08-16T08:43:00.363Z,3.00
2022-08-16T08:45:47.368Z,3.25
2022-08-16T08:48:34.879Z,2.78
2022-08-16T08:51:05.088Z,2.88
2022-08-16T08:53:33.763Z,3.10
2022-08-16T08:56:22.635Z,3.50
2022-08-16T08:58:54.879Z,3.15
2022-08-16T09:01:36.567Z,3.05
2022-08-16T09:04:18.920Z,3.42
2022-08-16T09:06:47.186Z,3.03
2022-08-16T09:09:17.134Z,2.83
2022-08-16T09:11:53.479Z,3.45
2022-08-16T09:14:32.531Z,3.30
2022-08-16T09:17:11.367Z,2.78
2022-08-16T09:19:42.801Z,3.03
2022-08-16T09:22:19.744Z,3.35
2022-08-16T09:24:53.260Z,2.80
2022-08-16T09:27:25.346Z,2.90
2022-08-16T09:30:00.068Z,3.05
2022-08-16T09:32:31.307Z,2.90
2022-08-16T09:35:01.464Z,3.15
2022-08-16T09:37:36.685Z,3.13
2022-08-16T09:40:31.771Z,2.75
2022-08-16T09:42:59.296Z,2.70
2022-08-16T09:45:30.063Z,3.35
2022-08-16T09:47:59.737Z,2.53
2022-08-16T09:50:33.163Z,2.30
2022-08-16T09:53:15.580Z,2.35
2022-08-16T09:55:49.284Z,2.70
2022-08-16T09:58:40.721Z,2.75
2022-08-16T10:01:11.507Z,2.95
2022-08-16T10:04:02.556Z,2.58
2022-08-16T10:06:33.480Z,2.58
2022-08-16T10:09:05.003Z,2.42
2022-08-16T10:12:11.378Z,2.45
2022-08-16T10:14:47.588Z,2.42
2022-08-16T10:17:17.161Z,2.65
2022-08-16T10:19:46.959Z,2.88
2022-08-16T10:22:19.145Z,2.65
2022-08-16T10:24:55.989Z,2.80
2022-08-16T10:27:47.070Z,2.67
2022-08-16T10:30:25.848Z,2.75
2022-08-16T10:33:02.645Z,2.53
2022-08-16T10:35:33.329Z,2.60
2022-08-16T10:38:01.914Z,2.70
2022-08-16T10:40:35.534Z,2.42
2022-08-16T10:43:04.371Z,2.42
2022-08-16T10:45:38.119Z,2.42
2022-08-16T10:48:27.769Z,2.47
2022-08-16T10:50:58.822Z,2.13
2022-08-16T10:53:32.505Z,2.53
2022-08-16T10:56:03.322Z,2.42
2022-08-16T10:58:34.961Z,2.63
2022-08-16T11:03:57.399Z,2.35
2022-08-16T11:06:27.864Z,2.65
2022-08-16T11:14:35.454Z,2.58
2022-08-16T11:17:10.731Z,2.45
2022-08-16T11:22:47.552Z,2.20
2022-08-16T11:28:09.861Z,2.45
2022-08-16T11:30:39.851Z,2.53
2022-08-16T11:33:10.843Z,2.33
2022-08-16T11:35:44.719Z,2.63
2022-08-16T11:38:51.992Z,2.33
2022-08-16T11:41:17.677Z,2.33
2022-08-16T11:43:47.565Z,2.28
2022-08-16T11:46:43.039Z,2.65
2022-08-16T11:49:13.214Z,2.30
2022-08-16T11:51:43.991Z,2.20
2022-08-16T11:54:20.806Z,2.55
2022-08-16T11:56:52.487Z,2.28
2022-08-16T11:59:28.630Z,2.20
2022-08-16T12:01:59.771Z,2.40
2022-08-16T12:04:31.279Z,2.25
2022-08-16T12:06:59.967Z,2.50
2022-08-16T12:09:30.261Z,2.28
2022-08-16T12:12:02.867Z,2.35
2022-08-16T12:14:35.420Z,2.25
2022-08-16T12:17:08.308Z,2.50
2022-08-16T12:19:38.278Z,2.53
2022-08-16T12:22:18.687Z,2.53
2022-08-16T12:24:50.967Z,2.42
2022-08-16T12:27:24.088Z,2.45
2022-08-16T12:29:54.787Z,2.53
2022-08-16T12:32:38.039Z,2.40
2022-08-16T12:35:19.559Z,2.40
2022-08-16T12:37:56.705Z,2.45
2022-08-16T12:40:35.778Z,2.50
2022-08-16T12:43:06.697Z,2.05
2022-08-16T12:45:38.102Z,2.13
2022-08-16T12:48:32.679Z,2.50
2022-08-16T12:51:04.296Z,2.35
2022-08-16T12:53:34.663Z,2.50
2022-08-16T12:56:10.697Z,2.60
2022-08-16T12:58:48.814Z,2.47
2022-08-16T13:01:22.978Z,2.20
2022-08-16T13:04:12.223Z,2.13
2022-08-16T13:06:50.121Z,2.13
2022-08-16T13:09:26.541Z,2.10
2022-08-16T13:12:04.176Z,2.40
2022-08-16T13:14:42.372Z,2.40
2022-08-16T13:17:31.933Z,2.70
2022-08-16T13:20:07.537Z,2.47
2022-08-16T13:22:44.237Z,2.30
2022-08-16T13:25:20.699Z,2.20
2022-08-16T13:28:01.817Z,2.40
2022-08-16T13:30:41.263Z,2.53
2022-08-16T13:33:17.043Z,2.10
2022-08-16T13:35:56.112Z,2.10
2022-08-16T13:38:44.292Z,2.70
2022-08-16T13:41:15.376Z,2.45
2022-08-16T13:43:43.756Z,2.60
2022-08-16T13:46:26.284Z,2.38
2022-08-16T13:48:57.464Z,2.30
2022-08-16T13:51:29.367Z,2.50
2022-08-16T13:54:03.759Z,2.35
2022-08-16T13:56:39.537Z,2.30
2022-08-16T13:59:20.919Z,2.40
2022-08-16T14:01:54.456Z,2.30
2022-08-16T14:04:27.092Z,2.40
2022-08-16T14:06:57.100Z,2.45
2022-08-16T14:09:28.398Z,2.25
2022-08-16T14:11:57.352Z,2.85
2022-08-16T14:14:28.483Z,2.55
2022-08-16T14:17:05.215Z,2.35
2022-08-16T14:19:44.806Z,2.70
2022-08-16T14:22:30.434Z,2.50
2022-08-16T14:25:03.251Z,2.13
2022-08-16T14:27:35.849Z,2.15
2022-08-16T14:30:11.261Z,2.33
2022-08-16T14:32:49.620Z,2.67
2022-08-16T14:35:21.976Z,2.38
2022-08-16T14:38:05.841Z,2.17
2022-08-16T14:40:35.732Z,2.00
2022-08-16T14:43:06.971Z,2.40
2022-08-16T14:45:36.870Z,2.30
2022-08-16T14:48:05.745Z,2.40
2022-08-16T14:50:34.350Z,2.50
2022-08-16T14:53:05.409Z,2.33
2022-08-16T14:55:36.945Z,2.75
2022-08-16T14:58:18.777Z,2.40
2022-08-16T15:00:50.498Z,2.15
2022-08-16T15:03:23.310Z,2.17
2022-08-16T15:05:54.091Z,2.15
2022-08-16T15:08:36.817Z,2.47
2022-08-16T15:11:07.986Z,2.28
2022-08-16T15:13:36.639Z,2.30
2022-08-16T15:16:06.050Z,2.50
2022-08-16T15:18:34.532Z,2.47
2022-08-16T15:21:04.957Z,2.63
2022-08-16T15:23:34.707Z,2.22
2022-08-16T15:26:08.389Z,2.00
2022-08-16T15:28:38.849Z,2.40
2022-08-16T15:31:12.951Z,2.22
2022-08-16T15:33:50.032Z,2.22
2022-08-16T15:36:21.278Z,2.95
2022-08-16T15:39:02.178Z,2.00
2022-08-16T15:42:01.064Z,2.55
2022-08-16T15:44:44.786Z,2.55
2022-08-16T15:47:21.612Z,2.40
2022-08-16T15:49:55.522Z,2.63
2022-08-16T15:52:29.773Z,2.10
2022-08-16T15:55:00.236Z,2.40
2022-08-16T15:57:30.210Z,2.53
2022-08-16T16:00:04.746Z,2.50
2022-08-16T16:02:55.837Z,2.75
2022-08-16T16:05:33.709Z,2.80
2022-08-16T16:08:11.871Z,2.60
2022-08-16T16:10:43.452Z,2.40
2022-08-16T16:13:13.500Z,2.22
2022-08-16T16:15:45.813Z,2.63
2022-08-16T16:18:15.887Z,2.47
2022-08-16T16:20:47.541Z,2.42
2022-08-16T16:23:17.908Z,2.53
2022-08-16T16:25:47.095Z,2.40
2022-08-16T16:29:05.157Z,2.53
2022-08-16T16:31:13.183Z,2.58
2022-08-16T16:33:44.468Z,2.38
2022-08-16T16:36:16.801Z,2.50
2022-08-16T16:38:47.563Z,2.55
2022-08-16T16:41:20.474Z,2.30
2022-08-16T16:43:53.525Z,2.53
2022-08-16T16:46:38.939Z,2.58
2022-08-16T16:49:12.394Z,2.72
2022-08-16T16:51:44.584Z,2.75
2022-08-16T16:54:27.769Z,2.30
2022-08-16T16:56:56.751Z,2.60
2022-08-16T16:59:28.326Z,2.55
2022-08-16T17:02:38.585Z,2.60
2022-08-16T17:04:48.312Z,2.60
2022-08-16T17:07:17.225Z,2.50
2022-08-16T17:09:46.890Z,2.60
2022-08-16T17:12:25.479Z,2.50
2022-08-16T17:15:03.512Z,2.72
2022-08-16T17:17:36.228Z,2.70
2022-08-16T17:20:24.566Z,2.85
2022-08-16T17:22:55.674Z,2.80
2022-08-16T17:25:25.092Z,2.90
2022-08-16T17:27:53.322Z,3.20
2022-08-16T17:30:29.289Z,2.80
2022-08-16T17:33:02.268Z,2.70
2022-08-16T17:35:34.975Z,2.95
2022-08-16T17:38:06.344Z,3.17
2022-08-16T17:40:49.169Z,2.88
2022-08-16T17:43:27.530Z,4.68
2022-08-16T17:45:56.957Z,5.22
2022-08-16T17:48:27.255Z,3.80
2022-08-16T17:50:55.410Z,2.95
2022-08-16T17:53:23.746Z,2.85
2022-08-16T17:55:54.434Z,2.88
2022-08-16T17:58:24.373Z,3.17
2022-08-16T18:00:55.974Z,3.00
2022-08-16T18:04:06.962Z,3.20
2022-08-16T18:06:18.550Z,3.60
2022-08-16T18:08:48.392Z,3.00
2022-08-16T18:11:18.266Z,3.15
2022-08-16T18:13:50.338Z,3.17
2022-08-16T18:16:19.780Z,3.20
2022-08-16T18:18:49.550Z,3.10
2022-08-16T18:21:35.943Z,3.20
2022-08-16T18:24:04.494Z,3.55
2022-08-16T18:26:32.810Z,3.55
2022-08-16T18:29:01.405Z,3.58
2022-08-16T18:31:35.234Z,4.68
2022-08-16T18:34:08.645Z,10.88
2022-08-16T18:36:37.495Z,6.78
2022-08-16T18:39:06.911Z,7.30
2022-08-16T18:41:37.116Z,5.60
2022-08-16T18:44:25.358Z,4.72
2022-08-16T18:46:56.667Z,3.90
2022-08-16T18:49:26.360Z,5.10
2022-08-16T18:51:58.107Z,5.28
2022-08-16T18:54:28.082Z,5.32
2022-08-16T18:56:58.220Z,4.65
2022-08-16T18:59:28.614Z,4.57
2022-08-16T19:02:00.187Z,4.60
2022-08-16T19:04:56.291Z,4.22
2022-08-16T19:07:31.283Z,4.28
2022-08-16T19:10:00.894Z,3.72
2022-08-16T19:12:38.501Z,4.70
2022-08-16T19:15:15.688Z,4.05
2022-08-16T19:17:45.389Z,4.40
2022-08-16T19:20:17.419Z,4.20
2022-08-16T19:23:06.279Z,3.70
2022-08-16T19:25:46.680Z,4.00
2022-08-16T19:28:33.340Z,4.45
2022-08-16T19:31:11.372Z,4.15
2022-08-16T19:33:40.385Z,3.78
2022-08-16T19:36:11.741Z,3.60
2022-08-16T19:39:04.364Z,3.97
2022-08-16T19:41:37.864Z,3.75
2022-08-16T19:44:08.960Z,3.92
2022-08-16T19:46:38.389Z,4.20
2022-08-16T19:49:07.852Z,4.15
2022-08-16T19:51:38.691Z,4.78
2022-08-16T19:54:10.910Z,4.85
2022-08-16T19:56:40.673Z,5.13
2022-08-16T19:59:20.590Z,5.20
2022-08-16T20:01:53.158Z,4.60
2022-08-16T20:04:22.463Z,5.40
2022-08-16T20:06:55.663Z,4.47
2022-08-16T20:09:24.566Z,4.18
2022-08-16T20:11:55.530Z,3.63
2022-08-16T20:14:25.436Z,3.80
2022-08-16T20:16:56.607Z,4.40
2022-08-16T20:19:27.298Z,4.32
2022-08-16T20:22:01.642Z,3.85
2022-08-16T20:24:35.330Z,4.03
2022-08-16T20:27:06.138Z,4.03
2022-08-16T20:29:35.185Z,3.75
2022-08-16T20:32:03.526Z,4.05
2022-08-16T20:34:34.092Z,4.15
2022-08-16T20:37:05.101Z,3.72
2022-08-16T20:39:34.155Z,4.22
2022-08-16T20:42:04.293Z,4.18
2022-08-16T20:44:33.724Z,3.90
2022-08-16T20:47:03.216Z,3.75
2022-08-16T20:49:31.609Z,3.90
2022-08-16T20:52:00.106Z,3.97
2022-08-16T20:54:31.323Z,3.92
2022-08-16T20:56:59.799Z,3.97
2022-08-16T20:59:28.501Z,4.00
2022-08-16T21:01:57.545Z,4.53
2022-08-16T21:04:27.881Z,4.00
2022-08-16T21:06:58.445Z,4.53
2022-08-16T21:09:28.902Z,4.07
2022-08-16T21:12:00.875Z,4.03
2022-08-16T21:14:34.077Z,4.20
2022-08-16T21:17:03.232Z,3.97
2022-08-16T21:19:32.785Z,3.92
2022-08-16T21:22:11.845Z,4.40
2022-08-16T21:24:40.436Z,4.28
2022-08-16T21:27:13.123Z,4.25
2022-08-16T21:29:45.789Z,4.22
2022-08-16T21:32:16.365Z,4.53
2022-08-16T21:34:46.949Z,4.57
2022-08-16T21:37:15.835Z,4.35
2022-08-16T21:39:45.840Z,4.22
2022-08-16T21:42:17.659Z,4.30
2022-08-16T21:44:46.857Z,4.68
2022-08-16T21:47:15.345Z,4.40
2022-08-16T21:49:44.222Z,4.75
2022-08-16T21:52:26.102Z,4.10
2022-08-16T21:54:56.634Z,4.32
2022-08-16T21:57:26.947Z,4.50
2022-08-16T22:00:04.211Z,4.38
2022-08-16T22:02:35.905Z,4.65
2022-08-16T22:05:07.653Z,4.60
2022-08-16T22:07:36.353Z,5.57
2022-08-16T22:10:05.956Z,4.93
2022-08-16T22:12:55.973Z,4.75
2022-08-16T22:15:25.999Z,5.15
2022-08-16T22:17:56.336Z,4.35
2022-08-16T22:20:25.591Z,4.90
2022-08-16T22:22:54.812Z,4.78
2022-08-16T22:25:23.274Z,4.32
2022-08-16T22:27:51.870Z,4.97
2022-08-16T22:30:22.057Z,4.30
2022-08-16T22:32:52.615Z,4.72
2022-08-16T22:35:21.587Z,4.78
2022-08-16T22:38:01.218Z,5.78
2022-08-16T22:40:40.500Z,4.70
2022-08-16T22:43:09.155Z,4.93
2022-08-16T22:45:39.100Z,4.90
2022-08-16T22:48:08.418Z,4.63
2022-08-16T22:50:37.491Z,4.90
2022-08-16T22:53:09.972Z,4.40
2022-08-16T22:55:41.545Z,5.00
2022-08-16T22:58:10.125Z,4.35
2022-08-16T23:00:39.907Z,4.60
2022-08-16T23:03:11.372Z,4.50
2022-08-16T23:05:41.325Z,4.63
2022-08-16T23:08:38.652Z,4.43
2022-08-16T23:11:09.170Z,4.47
2022-08-16T23:13:52.440Z,4.13
2022-08-16T23:16:33.384Z,4.60
2022-08-16T23:19:03.892Z,4.03
2022-08-16T23:21:32.756Z,4.97
2022-08-16T23:24:01.393Z,4.40
2022-08-16T23:26:46.980Z,4.18
2022-08-16T23:29:24.803Z,4.40
2022-08-16T23:31:59.775Z,4.07
2022-08-16T23:34:31.867Z,4.70
2022-08-16T23:37:00.668Z,4.78
2022-08-16T23:39:29.574Z,4.60
2022-08-16T23:41:59.238Z,4.90
2022-08-16T23:44:57.897Z,4.35
2022-08-16T23:47:17.948Z,5.05
2022-08-16T23:50:01.304Z,4.93
2022-08-16T23:52:53.335Z,4.35
2022-08-16T23:55:21.702Z,4.95
2022-08-16T23:57:50.597Z,4.67
